Time;durP1;ratioP1;P1;durP2;ratioP2;P2;SDS_P1;SDS_P2;PMS_P1;PMS_P2;Temp;Humidity;BMP_temperature;BMP_pressure;BME280_temperature;BME280_humidity;BME280_pressure;Samples;Min_cycle;Max_cycle;Signal;HPM_P1;HPM_P2
2023/12/18 00:01:05;;;;;;;;;;;1.50;99.90;;;0.62;100.00;99706.81;4984452;28;1685;-69
2023/12/18 00:03:32;;;;;;;;;;;1.60;99.90;;;0.57;100.00;99708.31;4983926;28;1734;-70
2023/12/18 00:05:59;;;;;;;;;;;1.50;99.90;;;0.48;100.00;99701.25;4982313;28;1914;-70
2023/12/18 00:08:26;;;;;;;;;;;1.60;99.90;;;0.52;100.00;99700.50;5011329;28;1807;-69
2023/12/18 00:10:53;;;;;;;;;;;1.50;99.90;;;0.47;100.00;99696.09;4985411;28;1975;-70
2023/12/18 00:13:20;;;;;;;;;;;1.50;99.90;;;0.50;100.00;99693.63;4981157;28;1666;-70
2023/12/18 00:15:46;;;;;;;;;;;1.40;99.90;;;0.45;100.00;99690.06;4984591;28;1745;-70
2023/12/18 00:18:13;;;;;;;;;;;1.50;99.90;;;0.40;100.00;99698.44;4986508;28;1730;-70
2023/12/18 00:20:40;;;;;;;;;;;1.50;99.90;;;0.45;100.00;99692.63;4987612;28;1757;-69
2023/12/18 00:23:07;;;;;;;;;;;1.50;99.90;;;0.47;100.00;99691.84;4986944;28;1647;-70
2023/12/18 00:25:34;;;;;;;;;;;1.50;99.90;;;0.50;100.00;99686.84;4985304;28;1969;-70
2023/12/18 00:28:01;;;;;;;;;;;1.50;99.90;;;0.54;100.00;99682.69;4983669;28;1634;-69
2023/12/18 00:30:27;;;;;;;;;;;1.50;99.90;;;0.52;100.00;99681.75;4984128;28;1838;-70
2023/12/18 00:32:54;;;;;;;;;;;1.60;99.90;;;0.47;100.00;99679.06;4985170;28;1733;-69
2023/12/18 00:35:21;;;;;;;;;;;1.60;99.90;;;0.46;100.00;99673.91;4984228;28;1721;-70
2023/12/18 00:37:48;;;;;;;;;;;1.50;99.90;;;0.40;100.00;99666.91;5015568;28;1708;-70
2023/12/18 00:40:15;;;;;;;;;;;1.50;99.90;;;0.43;100.00;99668.69;4985640;28;1708;-70
2023/12/18 00:42:42;;;;;;;;;;;1.50;99.90;;;0.38;100.00;99661.75;5018316;28;1542;-70
2023/12/18 00:45:09;;;;;;;;;;;1.50;99.90;;;0.35;100.00;99659.09;4985978;28;1991;-69
2023/12/18 00:47:36;;;;;;;;;;;1.40;99.90;;;0.20;100.00;99653.50;4988933;28;1487;-70
2023/12/18 00:50:07;;;;;;;;;;;1.40;99.90;;;0.23;100.00;99648.53;4987328;28;1673;-70
2023/12/18 00:52:34;;;;;;;;;;;1.40;99.90;;;0.21;100.00;99652.69;4988331;28;1662;-71
2023/12/18 00:55:01;;;;;;;;;;;1.30;99.90;;;0.38;100.00;99660.91;4985377;28;1595;-70
2023/12/18 00:57:28;;;;;;;;;;;1.30;99.90;;;0.34;100.00;99654.84;4987445;28;1449;-70
2023/12/18 00:59:55;;;;;;;;;;;1.30;99.90;;;0.37;100.00;99660.03;4987148;28;1632;-70
2023/12/18 01:02:22;;;;;;;;;;;1.30;99.90;;;0.43;100.00;99661.03;4985895;28;1967;-70
2023/12/18 01:04:48;;;;;;;;;;;1.40;99.90;;;0.50;100.00;99658.75;4987752;28;1914;-69
2023/12/18 01:07:15;;;;;;;;;;;1.40;99.90;;;0.53;100.00;99643.50;4986328;28;1634;-70
2023/12/18 01:09:42;;;;;;;;;;;1.40;99.90;;;0.55;100.00;99643.56;5000255;28;1629;-69
2023/12/18 01:12:09;;;;;;;;;;;1.50;99.90;;;0.62;100.00;99650.56;4987184;28;1546;-70
2023/12/18 01:14:36;;;;;;;;;;;1.40;99.90;;;0.54;100.00;99658.00;5015829;28;1722;-70
2023/12/18 01:17:03;;;;;;;;;;;1.30;99.90;;;0.32;100.00;99647.91;4984229;28;1539;-70
2023/12/18 01:19:29;;;;;;;;;;;1.30;99.90;;;0.25;100.00;99646.00;4984046;28;1725;-70
2023/12/18 01:21:56;;;;;;;;;;;1.30;99.90;;;0.12;100.00;99637.94;5018506;28;1648;-69
2023/12/18 01:24:23;;;;;;;;;;;1.30;99.90;;;0.21;100.00;99627.16;4984380;28;1965;-70
2023/12/18 01:26:50;;;;;;;;;;;1.30;99.90;;;0.25;100.00;99623.91;4986519;28;1578;-70
2023/12/18 01:29:17;;;;;;;;;;;1.30;99.90;;;0.27;100.00;99622.22;4986546;28;1762;-70
2023/12/18 01:31:44;;;;;;;;;;;1.40;99.90;;;0.31;100.00;99623.22;4986931;28;1685;-69
2023/12/18 01:34:10;;;;;;;;;;;1.40;99.90;;;0.34;100.00;99615.63;4986490;28;1923;-70
2023/12/18 01:36:38;;;;;;;;;;;1.50;99.90;;;0.49;100.00;99605.03;4985069;28;1677;-70
2023/12/18 01:39:05;;;;;;;;;;;1.50;99.90;;;0.49;100.00;99613.56;4986197;28;1773;-70
2023/12/18 01:41:32;;;;;;;;;;;1.60;99.90;;;0.62;100.00;99617.34;4986358;28;1606;-70
2023/12/18 01:43:58;;;;;;;;;;;1.60;99.90;;;0.50;100.00;99616.97;4986299;28;1575;-70
2023/12/18 01:46:26;;;;;;;;;;;1.50;99.90;;;0.53;100.00;99607.72;4985270;28;1930;-70
2023/12/18 01:48:53;;;;;;;;;;;1.60;99.90;;;0.47;100.00;99614.31;4988259;28;1528;-70
2023/12/18 01:51:22;;;;;;;;;;;1.50;99.90;;;0.63;100.00;99611.41;4985826;28;1701;-70
2023/12/18 01:53:52;;;;;;;;;;;1.60;99.90;;;0.76;100.00;99608.41;4988881;28;1622;-69
2023/12/18 01:56:22;;;;;;;;;;;1.70;99.90;;;0.83;100.00;99617.09;4988277;28;1709;-70
2023/12/18 01:58:49;;;;;;;;;;;1.70;99.90;;;0.73;100.00;99621.09;5014360;28;1583;-69
2023/12/18 02:01:16;;;;;;;;;;;1.80;99.90;;;0.76;100.00;99618.63;4996590;28;1566;-70
2023/12/18 02:03:44;;;;;;;;;;;1.80;99.90;;;0.85;100.00;99620.59;4986699;28;1646;-70
2023/12/18 02:06:28;;;;;;;;;;;1.80;99.90;;;0.83;100.00;99604.34;5014865;28;1910;-70
2023/12/18 02:08:57;;;;;;;;;;;1.80;99.90;;;0.78;100.00;99611.00;4984604;28;1574;-70
2023/12/18 02:11:24;;;;;;;;;;;1.90;99.90;;;0.74;100.00;99598.94;4985296;28;1547;-70
2023/12/18 02:13:50;;;;;;;;;;;1.80;99.90;;;0.72;100.00;99593.78;4983760;28;1674;-70
2023/12/18 02:16:17;;;;;;;;;;;1.80;99.90;;;0.77;100.00;99599.03;5016190;28;1404;-70
2023/12/18 02:18:45;;;;;;;;;;;1.80;99.90;;;0.81;100.00;99601.72;4984348;28;1500;-70
2023/12/18 02:21:22;;;;;;;;;;;1.90;99.90;;;0.78;100.00;99596.53;4984371;28;1362;-70
2023/12/18 02:23:49;;;;;;;;;;;1.90;99.90;;;0.82;100.00;99600.03;4986325;28;1505;-70
2023/12/18 02:26:17;;;;;;;;;;;1.90;99.90;;;0.98;100.00;99614.09;4988511;28;1914;-70
2023/12/18 02:28:46;;;;;;;;;;;1.90;99.90;;;0.95;100.00;99619.16;5015165;28;1477;-70
2023/12/18 02:31:13;;;;;;;;;;;1.90;99.90;;;0.89;100.00;99608.75;5018951;28;1505;-71
2023/12/18 02:33:41;;;;;;;;;;;1.90;99.90;;;0.87;100.00;99606.16;4984334;28;1627;-70
2023/12/18 02:36:08;;;;;;;;;;;1.90;99.90;;;0.82;100.00;99606.03;5016351;28;1402;-70
2023/12/18 02:38:35;;;;;;;;;;;1.90;99.90;;;0.82;100.00;99603.47;5012725;28;1653;-70
2023/12/18 02:41:02;;;;;;;;;;;1.90;99.90;;;0.79;100.00;99600.81;4983402;28;1606;-69
2023/12/18 02:43:29;;;;;;;;;;;1.80;99.90;;;0.79;100.00;99595.69;4985054;28;1497;-71
2023/12/18 02:45:56;;;;;;;;;;;1.80;99.90;;;0.68;100.00;99584.28;5013955;28;1985;-70
2023/12/18 02:48:23;;;;;;;;;;;1.80;99.90;;;0.68;100.00;99588.53;4984003;28;1402;-70
2023/12/18 02:50:50;;;;;;;;;;;1.80;99.90;;;0.60;100.00;99594.28;4985602;28;1414;-70
2023/12/18 02:53:17;;;;;;;;;;;1.70;99.90;;;0.51;100.00;99591.47;4986061;28;1399;-69
2023/12/18 02:55:44;;;;;;;;;;;1.60;99.90;;;0.44;100.00;99587.00;4985042;28;1493;-70
2023/12/18 02:58:11;;;;;;;;;;;1.50;99.90;;;0.31;100.00;99587.44;4986188;28;1450;-70
2023/12/18 03:00:38;;;;;;;;;;;1.40;99.90;;;0.40;100.00;99582.63;4985679;28;1406;-70
2023/12/18 03:03:05;;;;;;;;;;;1.40;99.90;;;0.38;100.00;99581.69;4988177;28;1616;-70
2023/12/18 03:05:32;;;;;;;;;;;1.50;99.90;;;0.48;100.00;99577.72;4986579;28;1910;-71
2023/12/18 03:07:59;;;;;;;;;;;1.50;99.90;;;0.49;100.00;99576.91;4986805;28;946;-70
2023/12/18 03:10:26;;;;;;;;;;;1.50;99.90;;;0.64;100.00;99569.72;5015204;28;1475;-70
2023/12/18 03:12:52;;;;;;;;;;;1.50;99.90;;;0.56;100.00;99573.72;4984965;28;1449;-70
2023/12/18 03:15:19;;;;;;;;;;;1.60;99.90;;;0.57;100.00;99572.88;4982918;28;1422;-71
2023/12/18 03:17:46;;;;;;;;;;;1.60;99.90;;;0.58;100.00;99566.97;4984677;28;1470;-71
2023/12/18 03:20:13;;;;;;;;;;;1.60;99.90;;;0.58;100.00;99562.72;4969126;28;1553;-70
2023/12/18 03:22:40;;;;;;;;;;;1.60;99.90;;;0.57;100.00;99547.31;4989851;28;1443;-70
2023/12/18 03:25:07;;;;;;;;;;;1.70;99.90;;;0.64;100.00;99546.72;5020452;28;1915;-70
2023/12/18 03:27:35;;;;;;;;;;;1.70;99.90;;;0.70;100.00;99546.88;4989732;28;1378;-70
2023/12/18 03:30:03;;;;;;;;;;;1.70;99.90;;;0.70;100.00;99541.75;5020880;28;1371;-70
2023/12/18 03:32:29;;;;;;;;;;;1.80;99.90;;;0.73;100.00;99540.97;4971392;28;1778;-69
2023/12/18 03:34:56;;;;;;;;;;;1.80;99.90;;;0.74;100.00;99545.28;5002789;28;1430;-70
2023/12/18 03:37:23;;;;;;;;;;;1.80;99.90;;;0.69;100.00;99549.41;5020645;28;1146;-70
2023/12/18 03:39:50;;;;;;;;;;;1.80;99.90;;;0.67;100.00;99551.03;4990008;28;1433;-71
2023/12/18 03:42:17;;;;;;;;;;;1.80;99.90;;;0.67;100.00;99541.69;4989582;28;1575;-71
2023/12/18 03:44:46;;;;;;;;;;;1.80;99.90;;;0.62;100.00;99554.31;5001273;28;1425;-70
2023/12/18 03:47:13;;;;;;;;;;;1.70;99.90;;;0.62;100.00;99553.47;4972262;28;1911;-70
2023/12/18 03:49:40;;;;;;;;;;;1.70;99.90;;;0.59;100.00;99546.56;4988125;28;1560;-70
2023/12/18 03:52:07;;;;;;;;;;;1.70;99.90;;;0.50;100.00;99548.88;4990626;28;1540;-70
2023/12/18 03:54:35;;;;;;;;;;;1.60;99.90;;;0.56;100.00;99556.69;4989995;28;1710;-70
2023/12/18 03:57:02;;;;;;;;;;;1.60;99.90;;;0.52;100.00;99542.09;4987225;28;1691;-69
2023/12/18 03:59:28;;;;;;;;;;;1.60;99.90;;;0.49;100.00;99536.91;4987954;28;1603;-70
2023/12/18 04:01:55;;;;;;;;;;;1.60;99.90;;;0.52;100.00;99538.66;4988832;28;1563;-70
2023/12/18 04:04:22;;;;;;;;;;;1.60;99.90;;;0.56;100.00;99535.38;4989200;28;1366;-71
2023/12/18 04:06:49;;;;;;;;;;;1.60;99.90;;;0.52;100.00;99526.75;4987565;28;1981;-70
2023/12/18 04:09:16;;;;;;;;;;;1.60;99.90;;;0.58;100.00;99526.94;4988806;28;1627;-70
2023/12/18 04:11:43;;;;;;;;;;;1.60;99.90;;;0.56;100.00;99526.03;4990087;28;1416;-70
2023/12/18 04:14:10;;;;;;;;;;;1.60;99.90;;;0.61;100.00;99516.78;4989879;28;1499;-70
2023/12/18 04:16:37;;;;;;;;;;;1.60;99.90;;;0.61;100.00;99514.25;4985834;28;1524;-70
2023/12/18 04:19:04;;;;;;;;;;;1.60;99.90;;;0.61;100.00;99519.34;4986954;28;1213;-70
2023/12/18 04:21:32;;;;;;;;;;;1.70;99.90;;;0.61;100.00;99518.50;4988962;28;1527;-70
2023/12/18 04:23:58;;;;;;;;;;;1.70;99.90;;;0.60;100.00;99522.75;4989867;28;1608;-69
2023/12/18 04:26:25;;;;;;;;;;;1.70;99.90;;;0.59;100.00;99525.25;4989535;28;1891;-70
2023/12/18 04:28:52;;;;;;;;;;;1.70;99.90;;;0.63;100.00;99532.19;4989652;28;1659;-70
2023/12/18 04:31:20;;;;;;;;;;;1.60;99.90;;;0.61;100.00;99532.13;4991522;28;1740;-70
2023/12/18 04:33:47;;;;;;;;;;;1.60;99.90;;;0.57;100.00;99530.34;4988272;28;1747;-70
2023/12/18 04:36:14;;;;;;;;;;;1.60;99.90;;;0.48;100.00;99524.97;4985720;28;1854;-70
2023/12/18 04:38:42;;;;;;;;;;;1.60;99.90;;;0.51;100.00;99532.69;4988840;28;1738;-70
2023/12/18 04:41:17;;;;;;;;;;;1.60;99.90;;;0.48;100.00;99527.50;4989223;28;1114;-70
2023/12/18 04:44:02;;;;;;;;;;;1.60;99.90;;;0.45;100.00;99529.97;4971776;28;1585;-69
2023/12/18 04:46:34;;;;;;;;;;;1.50;99.90;;;0.43;100.00;99536.72;4987270;28;1973;-70
2023/12/18 04:49:02;;;;;;;;;;;1.50;99.90;;;0.46;100.00;99536.81;5013485;28;1585;-70
2023/12/18 04:51:29;;;;;;;;;;;1.50;99.90;;;0.45;100.00;99542.72;5017450;28;1590;-70
2023/12/18 04:53:56;;;;;;;;;;;1.50;99.90;;;0.36;100.00;99537.34;4990261;28;1544;-70
2023/12/18 04:56:23;;;;;;;;;;;1.50;99.90;;;0.36;100.00;99534.81;4969317;28;1585;-70
2023/12/18 04:58:50;;;;;;;;;;;1.40;99.90;;;0.34;100.00;99537.31;4989086;28;1429;-70
2023/12/18 05:01:17;;;;;;;;;;;1.40;99.90;;;0.34;100.00;99529.66;4985681;28;1563;-70
2023/12/18 05:03:44;;;;;;;;;;;1.40;99.90;;;0.43;100.00;99540.97;5017744;28;1441;-70
2023/12/18 05:06:19;;;;;;;;;;;1.40;99.90;;;0.42;100.00;99550.31;4985514;28;2907;-71
2023/12/18 05:08:47;;;;;;;;;;;1.40;99.90;;;0.39;100.00;99551.09;4988815;28;1491;-70
2023/12/18 05:11:21;;;;;;;;;;;1.40;99.90;;;0.34;100.00;99549.22;4987785;28;1896;-70
2023/12/18 05:13:51;;;;;;;;;;;1.30;99.90;;;0.27;100.00;99555.81;5017316;28;1429;-70
2023/12/18 05:16:21;;;;;;;;;;;1.40;99.90;;;0.24;100.00;99554.88;4984893;28;1517;-70
2023/12/18 05:18:48;;;;;;;;;;;1.30;99.90;;;0.19;100.00;99555.59;4987173;28;1738;-70
2023/12/18 05:21:16;;;;;;;;;;;1.30;99.90;;;0.20;100.00;99549.66;4988290;28;1516;-70
2023/12/18 05:23:45;;;;;;;;;;;1.30;99.90;;;0.02;100.00;99545.69;4986165;28;1503;-70
2023/12/18 05:26:12;;;;;;;;;;;1.30;99.90;;;0.05;100.00;99546.66;5016684;28;1989;-70
2023/12/18 05:28:39;;;;;;;;;;;1.20;99.90;;;-0.03;100.00;99550.66;4987837;28;1106;-70
2023/12/18 05:31:09;;;;;;;;;;;1.10;99.90;;;0.02;100.00;99548.22;4985032;28;1568;-70
2023/12/18 05:33:37;;;;;;;;;;;1.10;99.90;;;0.00;100.00;99540.56;4986098;28;1598;-70
2023/12/18 05:36:04;;;;;;;;;;;1.10;99.90;;;-0.01;100.00;99547.31;5017135;28;1515;-70
2023/12/18 05:38:31;;;;;;;;;;;1.10;99.90;;;-0.05;100.00;99547.19;4986374;28;1504;-70
2023/12/18 05:40:58;;;;;;;;;;;1.10;99.90;;;0.02;100.00;99545.69;4987519;28;1528;-70
2023/12/18 05:43:25;;;;;;;;;;;1.10;99.90;;;0.05;100.00;99553.47;4982781;28;1578;-70
2023/12/18 05:45:54;;;;;;;;;;;1.10;99.90;;;0.05;100.00;99561.13;4986772;28;1914;-69
2023/12/18 05:48:21;;;;;;;;;;;1.00;99.90;;;0.06;100.00;99558.59;4986627;28;1429;-69
2023/12/18 05:50:48;;;;;;;;;;;1.00;99.90;;;-0.02;100.00;99565.16;5018268;28;1451;-70
2023/12/18 05:53:15;;;;;;;;;;;1.00;99.90;;;-0.08;100.00;99568.38;5014177;28;1756;-70
2023/12/18 05:55:42;;;;;;;;;;;1.00;99.90;;;-0.08;100.00;99575.16;4985744;28;1540;-70
2023/12/18 05:58:09;;;;;;;;;;;1.00;99.90;;;-0.07;100.00;99572.69;4983690;28;1616;-70
2023/12/18 06:00:38;;;;;;;;;;;1.00;99.90;;;0.01;100.00;99579.72;4987774;28;1507;-69
2023/12/18 06:03:05;;;;;;;;;;;1.00;99.90;;;-0.07;100.00;99576.88;4987803;28;1845;-70
2023/12/18 06:05:32;;;;;;;;;;;1.00;99.90;;;-0.11;100.00;99575.94;4985437;28;1902;-70
2023/12/18 06:08:01;;;;;;;;;;;1.00;99.90;;;-0.15;100.00;99570.69;5018173;28;1514;-70
2023/12/18 06:10:28;;;;;;;;;;;1.00;99.90;;;-0.18;100.00;99574.00;4995409;28;1715;-70
2023/12/18 06:12:55;;;;;;;;;;;0.90;99.90;;;-0.23;100.00;99575.53;5001161;28;1423;-70
2023/12/18 06:15:22;;;;;;;;;;;0.90;99.90;;;-0.24;100.00;99572.13;4985892;28;1225;-70
2023/12/18 06:17:49;;;;;;;;;;;0.80;99.90;;;-0.26;100.00;99571.19;4988085;28;1412;-70
2023/12/18 06:20:16;;;;;;;;;;;0.80;99.90;;;-0.25;100.00;99575.50;4986326;28;1149;-70
2023/12/18 06:22:43;;;;;;;;;;;0.90;99.90;;;-0.22;100.00;99577.28;4985362;28;1344;-70
2023/12/18 06:25:10;;;;;;;;;;;0.80;99.90;;;-0.25;100.00;99577.16;4987644;28;1589;-70
2023/12/18 06:27:37;;;;;;;;;;;0.80;99.90;;;-0.43;100.00;99580.00;4986171;28;1906;-70
2023/12/18 06:30:05;;;;;;;;;;;0.80;99.90;;;-0.40;100.00;99571.56;4986758;28;1122;-70
2023/12/18 06:32:31;;;;;;;;;;;0.80;99.90;;;-0.53;100.00;99578.78;5002703;28;1393;-71
2023/12/18 06:34:59;;;;;;;;;;;;;;;-0.45;100.00;99573.97;4989025;28;1264;-70
2023/12/18 06:37:26;;;;;;;;;;;0.70;99.90;;;-0.46;100.00;99583.31;4987795;28;1249;-70
2023/12/18 06:39:56;;;;;;;;;;;0.70;99.90;;;-0.43;100.00;99574.91;4986330;28;1367;-70
2023/12/18 06:42:23;;;;;;;;;;;0.70;99.90;;;-0.47;100.00;99571.34;4986600;28;1308;-70
2023/12/18 06:44:50;;;;;;;;;;;0.70;99.90;;;-0.48;100.00;99577.28;4987665;28;1086;-70
2023/12/18 06:47:16;;;;;;;;;;;0.60;99.90;;;-0.50;100.00;99578.03;5017307;28;1996;-70
2023/12/18 06:49:43;;;;;;;;;;;0.60;99.90;;;-0.47;100.00;99575.59;4987639;28;1087;-70
2023/12/18 06:52:10;;;;;;;;;;;0.60;99.90;;;-0.46;100.00;99577.31;4986486;28;1297;-70
2023/12/18 06:54:37;;;;;;;;;;;0.60;99.90;;;-0.33;100.00;99587.13;4987092;28;1225;-70
2023/12/18 06:57:04;;;;;;;;;;;0.60;99.90;;;-0.35;100.00;99598.09;4987052;28;1074;-70
2023/12/18 06:59:31;;;;;;;;;;;0.70;99.90;;;-0.54;100.00;99581.31;4986469;28;1345;-70
2023/12/18 07:01:58;;;;;;;;;;;0.60;99.90;;;-0.74;100.00;99584.03;4986253;28;1265;-71
2023/12/18 07:04:25;;;;;;;;;;;0.60;99.90;;;-0.46;100.00;99584.97;4986523;28;1082;-70
2023/12/18 07:06:52;;;;;;;;;;;0.60;99.90;;;-0.57;100.00;99601.59;4989812;28;1930;-69
2023/12/18 07:09:19;;;;;;;;;;;0.50;99.90;;;-0.64;100.00;99603.06;4986055;28;1142;-70
2023/12/18 07:11:45;;;;;;;;;;;0.50;99.90;;;-0.77;100.00;99598.38;4987232;28;1242;-71
2023/12/18 07:14:13;;;;;;;;;;;0.40;99.90;;;-0.70;100.00;99595.22;4987138;28;1649;-71
2023/12/18 07:16:40;;;;;;;;;;;0.30;99.90;;;-0.77;100.00;99601.78;4985052;28;1130;-70
2023/12/18 07:19:07;;;;;;;;;;;0.30;99.90;;;-0.81;100.00;99599.94;4986216;28;1122;-70
2023/12/18 07:21:34;;;;;;;;;;;0.30;99.90;;;-0.75;100.00;99597.63;4986864;28;1034;-70
2023/12/18 07:24:01;;;;;;;;;;;0.40;99.90;;;-0.67;100.00;99595.31;4986466;28;1367;-70
2023/12/18 07:26:28;;;;;;;;;;;0.40;99.90;;;-0.55;100.00;99593.19;4987284;28;1989;-70
2023/12/18 07:28:55;;;;;;;;;;;0.50;99.90;;;-0.47;100.00;99601.13;4987687;28;1415;-70
2023/12/18 07:31:22;;;;;;;;;;;0.50;99.90;;;-0.55;100.00;99603.38;4986958;28;1135;-70
2023/12/18 07:33:49;;;;;;;;;;;0.50;99.90;;;-0.44;100.00;99596.09;5002214;28;1438;-70
2023/12/18 07:36:16;;;;;;;;;;;0.50;99.90;;;-0.67;100.00;99595.31;4986386;28;1059;-70
2023/12/18 07:38:45;;;;;;;;;;;0.30;99.90;;;-0.96;100.00;99587.50;4971096;28;1115;-70
2023/12/18 07:41:16;;;;;;;;;;;0.20;99.90;;;-0.96;100.00;99590.06;4987314;28;971;-70
2023/12/18 07:43:43;;;;;;;;;;;0.10;99.90;;;-0.94;100.00;99601.19;4988018;28;1285;-70
2023/12/18 07:46:19;;;;;;;;;;;0.10;99.90;;;-0.72;100.00;99601.94;4987383;28;1907;-70
2023/12/18 07:48:49;;;;;;;;;;;0.10;99.90;;;-0.85;100.00;99593.00;5003245;28;1045;-70
2023/12/18 07:51:16;;;;;;;;;;;0.20;99.90;;;-0.72;100.00;99605.38;4985335;28;1077;-70
2023/12/18 07:53:44;;;;;;;;;;;0.30;99.90;;;-0.86;100.00;99598.91;4986258;28;1347;-70
2023/12/18 07:56:11;;;;;;;;;;;0.20;99.90;;;-0.60;100.00;99610.03;4988329;28;1163;-70
2023/12/18 07:58:41;;;;;;;;;;;0.20;99.90;;;-0.58;100.00;99605.84;4986972;28;998;-70
2023/12/18 08:01:08;;;;;;;;;;;0.20;99.90;;;-0.59;100.00;99604.13;4985860;28;1138;-70
2023/12/18 08:03:35;;;;;;;;;;;0.20;99.90;;;-0.52;100.00;99610.31;4985579;28;1253;-70
2023/12/18 08:06:03;;;;;;;;;;;0.20;99.90;;;-0.35;100.00;99605.75;4986414;28;1110;-69
2023/12/18 08:08:30;;;;;;;;;;;0.50;99.90;;;-0.42;100.00;99604.69;4972147;28;1714;-70
2023/12/18 08:10:57;;;;;;;;;;;0.50;99.90;;;-0.30;100.00;99612.72;4989386;28;1750;-70
2023/12/18 08:13:23;;;;;;;;;;;0.50;99.90;;;-0.40;100.00;99608.16;4989402;28;1384;-70
2023/12/18 08:15:50;;;;;;;;;;;0.50;99.90;;;-0.47;100.00;99611.31;4988850;28;959;-70
2023/12/18 08:18:17;;;;;;;;;;;0.50;99.90;;;-0.54;100.00;99607.69;4989795;28;1190;-69
2023/12/18 08:20:45;;;;;;;;;;;0.50;99.90;;;-0.50;100.00;99598.44;4990283;28;1043;-70
2023/12/18 08:23:12;;;;;;;;;;;0.50;99.90;;;-0.51;100.00;99591.63;4989801;28;1293;-70
2023/12/18 08:25:39;;;;;;;;;;;0.60;99.90;;;-0.37;100.00;99594.63;4990200;28;1009;-71
2023/12/18 08:28:05;;;;;;;;;;;0.60;99.90;;;-0.33;100.00;99587.13;5020610;28;1922;-70
2023/12/18 08:30:32;;;;;;;;;;;0.70;99.90;;;-0.13;100.00;99589.47;4990113;28;1532;-70
2023/12/18 08:33:01;;;;;;;;;;;0.80;99.90;;;-0.10;100.00;99594.66;4989605;28;1430;-70
2023/12/18 08:35:28;;;;;;;;;;;0.90;99.90;;;-0.09;100.00;99602.38;4990852;28;1050;-70
2023/12/18 08:37:54;;;;;;;;;;;0.90;99.90;;;0.01;100.00;99593.34;4990166;28;1187;-70
2023/12/18 08:40:21;;;;;;;;;;;1.00;99.90;;;-0.05;100.00;99596.53;4988409;28;1033;-70
2023/12/18 08:42:48;;;;;;;;;;;0.90;99.90;;;-0.11;100.00;99596.38;4992216;28;1319;-70
2023/12/18 08:45:15;;;;;;;;;;;0.90;99.90;;;-0.18;100.00;99596.97;4991952;28;1221;-70
2023/12/18 08:47:42;;;;;;;;;;;0.90;99.90;;;-0.17;100.00;99588.50;4989712;28;1902;-69
2023/12/18 08:50:09;;;;;;;;;;;0.90;99.90;;;-0.06;100.00;99597.38;4988763;28;1078;-70
2023/12/18 08:52:36;;;;;;;;;;;0.90;99.90;;;-0.07;100.00;99600.75;4989279;28;1459;-70
2023/12/18 08:55:03;;;;;;;;;;;0.90;99.90;;;-0.05;100.00;99593.97;4988895;28;1099;-70
2023/12/18 08:57:30;;;;;;;;;;;0.90;99.90;;;-0.06;100.00;99602.47;5020126;28;1411;-70
2023/12/18 08:59:57;;;;;;;;;;;1.00;99.90;;;-0.03;100.00;99581.28;5019749;28;2108;-70
2023/12/18 09:02:24;;;;;;;;;;;1.00;99.90;;;-0.05;100.00;99583.78;4985225;28;1313;-70
2023/12/18 09:04:51;;;;;;;;;;;1.00;99.90;;;0.01;100.00;99588.22;4984224;28;1254;-70
2023/12/18 09:07:18;;;;;;;;;;;1.10;99.90;;;-0.06;100.00;99587.16;4984000;28;1903;-70
2023/12/18 09:09:45;;;;;;;;;;;1.10;99.90;;;0.08;100.00;99584.19;4983610;28;1102;-71
2023/12/18 09:12:12;;;;;;;;;;;1.00;99.90;;;0.16;100.00;99580.16;4982611;28;1273;-68
2023/12/18 09:14:39;;;;;;;;;;;1.00;99.90;;;0.12;100.00;99583.47;4982316;28;1067;-69
2023/12/18 09:17:06;;;;;;;;;;;1.00;99.90;;;0.30;100.00;99585.72;4984802;28;1150;-69
2023/12/18 09:19:33;;;;;;;;;;;1.00;99.90;;;0.37;100.00;99587.66;4983025;28;1059;-70
2023/12/18 09:22:00;;;;;;;;;;;1.10;99.90;;;0.29;100.00;99582.28;4983531;28;1261;-70
2023/12/18 09:24:28;;;;;;;;;;;1.10;99.90;;;0.42;100.00;99580.97;4984335;28;1102;-70
2023/12/18 09:26:56;;;;;;;;;;;1.10;99.90;;;0.54;100.00;99586.44;4983763;28;1922;-70
2023/12/18 09:29:23;;;;;;;;;;;1.20;99.90;;;0.49;100.00;99577.78;4983267;28;1301;-70
2023/12/18 09:31:50;;;;;;;;;;;1.20;99.90;;;0.54;100.00;99583.88;4966374;28;1486;-70
2023/12/18 09:34:17;;;;;;;;;;;1.20;99.90;;;0.77;100.00;99584.56;4983621;28;1172;-70
2023/12/18 09:36:44;;;;;;;;;;;1.30;99.90;;;0.78;100.00;99588.00;4982805;28;1438;-70
2023/12/18 09:39:11;;;;;;;;;;;1.40;99.90;;;0.71;100.00;99574.19;4983466;28;1209;-70
2023/12/18 09:41:38;;;;;;;;;;;1.50;99.90;;;0.91;100.00;99572.16;4982611;28;1090;-70
2023/12/18 09:44:05;;;;;;;;;;;1.50;99.90;;;0.95;100.00;99573.97;4981983;28;1465;-70
2023/12/18 09:46:32;;;;;;;;;;;1.60;99.90;;;0.99;100.00;99572.38;4982823;28;1934;-69
2023/12/18 09:48:59;;;;;;;;;;;1.70;99.90;;;1.02;100.00;99570.75;4983719;28;1080;-70
2023/12/18 09:51:26;;;;;;;;;;;1.80;99.90;;;0.98;100.00;99568.09;4981022;28;1141;-70
2023/12/18 09:53:53;;;;;;;;;;;1.80;99.90;;;1.17;100.00;99569.47;4982115;28;1383;-69
2023/12/18 09:56:21;;;;;;;;;;;1.90;99.90;;;1.36;100.00;99563.16;4980980;28;1121;-68
2023/12/18 09:58:49;;;;;;;;;;;1.90;99.90;;;1.43;100.00;99563.31;4981807;28;1751;-70
2023/12/18 10:01:16;;;;;;;;;;;2.00;99.90;;;1.29;100.00;99558.69;4983410;28;1273;-70
2023/12/18 10:03:43;;;;;;;;;;;2.00;99.90;;;1.50;100.00;99556.69;5012905;28;1376;-70
2023/12/18 10:06:10;;;;;;;;;;;2.10;99.90;;;1.51;100.00;99552.44;4982629;28;1106;-69
2023/12/18 10:08:37;;;;;;;;;;;2.10;99.90;;;1.40;100.00;99547.91;4983014;28;2009;-69
2023/12/18 10:11:04;;;;;;;;;;;2.30;99.90;;;1.50;100.00;99543.03;4982126;28;1145;-70
2023/12/18 10:13:30;;;;;;;;;;;2.40;99.90;;;1.63;100.00;99556.16;4981486;28;1417;-70
2023/12/18 10:15:58;;;;;;;;;;;2.30;99.90;;;1.70;100.00;99548.66;4981672;28;1220;-70
2023/12/18 10:18:26;;;;;;;;;;;2.30;99.90;;;1.76;100.00;99547.09;4981746;28;1187;-70
2023/12/18 10:20:54;;;;;;;;;;;2.40;99.90;;;1.69;100.00;99550.34;4981284;28;1153;-70
2023/12/18 10:23:21;;;;;;;;;;;2.40;99.90;;;1.61;100.00;99546.72;4981646;28;1283;-70
2023/12/18 10:25:48;;;;;;;;;;;2.40;99.90;;;1.71;100.00;99530.78;4982022;28;1044;-71
2023/12/18 10:28:16;;;;;;;;;;;2.50;99.90;;;1.67;100.00;99541.75;4983663;28;1922;-70
2023/12/18 10:30:43;;;;;;;;;;;2.50;99.90;;;1.84;100.00;99537.88;4982587;28;1381;-70
2023/12/18 10:33:11;;;;;;;;;;;2.50;99.90;;;1.90;100.00;99534.63;4981356;28;1390;-70
2023/12/18 10:35:41;;;;;;;;;;;2.50;99.90;;;1.92;100.00;99537.25;4982772;28;1087;-70
2023/12/18 10:38:09;;;;;;;;;;;2.50;99.90;;;2.04;100.00;99540.06;4979601;28;1339;-70
2023/12/18 10:40:36;;;;;;;;;;;2.60;99.90;;;2.16;100.00;99526.66;4982144;28;1365;-70
2023/12/18 10:43:15;;;;;;;;;;;2.60;99.90;;;2.05;100.00;99521.28;4995337;28;1439;-70
2023/12/18 10:45:42;;;;;;;;;;;2.70;99.90;;;2.16;100.00;99531.78;4981542;28;2068;-70
2023/12/18 10:48:09;;;;;;;;;;;2.90;99.90;;;2.11;100.00;99510.34;4965211;28;1895;-70
2023/12/18 10:50:36;;;;;;;;;;;2.90;99.90;;;2.07;100.00;99514.50;4982610;28;1330;-70
2023/12/18 10:53:04;;;;;;;;;;;3.00;99.90;;;2.08;100.00;99509.44;4995414;28;1325;-69
2023/12/18 10:55:36;;;;;;;;;;;3.00;99.90;;;2.12;100.00;99510.34;4980874;28;1436;-69
2023/12/18 10:58:04;;;;;;;;;;;3.00;99.90;;;2.16;100.00;99503.59;4981194;28;1494;-71
2023/12/18 11:00:34;;;;;;;;;;;3.10;99.90;;;2.40;100.00;99505.84;4992238;28;1365;-70
2023/12/18 11:03:02;;;;;;;;;;;3.10;99.90;;;2.49;100.00;99501.78;4983175;28;1344;-70
2023/12/18 11:05:29;;;;;;;;;;;3.20;99.90;;;2.43;100.00;99496.50;5012523;28;1291;-70
2023/12/18 11:07:57;;;;;;;;;;;3.20;99.90;;;2.55;100.00;99501.00;5012400;28;1926;-71
2023/12/18 11:10:25;;;;;;;;;;;3.30;99.90;;;2.75;100.00;99503.97;5011389;28;1065;-70
2023/12/18 11:13:07;;;;;;;;;;;3.30;99.90;;;2.92;100.00;99500.06;5010140;28;1288;-70
2023/12/18 11:15:59;;;;;;;;;;;3.40;99.90;;;2.90;100.00;99498.31;5011027;28;1723;-69
2023/12/18 11:19:07;;;;;;;;;;;3.40;99.90;;;2.95;100.00;99483.84;5011526;28;1381;-70
2023/12/18 11:21:49;;;;;;;;;;;3.50;99.90;;;3.01;100.00;99483.97;5016325;28;1559;-70
2023/12/18 11:24:19;;;;;;;;;;;3.60;99.90;;;2.99;100.00;99482.19;4964836;28;1056;-70
2023/12/18 11:26:46;;;;;;;;;;;3.70;99.90;;;2.92;100.00;99471.84;5012055;28;1010;-68
2023/12/18 11:29:38;;;;;;;;;;;3.80;99.90;;;3.05;100.00;99466.91;4980466;28;1935;-69
2023/12/18 11:32:05;;;;;;;;;;;3.80;99.90;;;3.06;100.00;99461.81;5012932;28;1367;-69
2023/12/18 11:34:33;;;;;;;;;;;3.90;99.90;;;3.45;100.00;99462.47;5012077;28;1396;-70